sensor_id;sensor_type;location;lat;lon;timestamp;pressure;altitude;pressure_sealevel;temperature;humidity
40994;BME280;26722;43.212;27.932;2023-04-27T00:00:04;55183.66;;;-146.72;66.80
40994;BME280;26722;43.212;27.932;2023-04-27T00:02:35;55164.66;;;-146.72;66.46
40994;BME280;26722;43.212;27.932;2023-04-27T00:05:01;55173.09;;;-146.72;66.38
40994;BME280;26722;43.212;27.932;2023-04-27T00:07:27;55175.22;;;-146.72;66.60
40994;BME280;26722;43.212;27.932;2023-04-27T00:09:53;55162.53;;;-146.72;66.56
40994;BME280;26722;43.212;27.932;2023-04-27T00:12:18;55185.75;;;-146.72;66.85
40994;BME280;26722;43.212;27.932;2023-04-27T00:14:44;55173.09;;;-146.72;66.98
40994;BME280;26722;43.212;27.932;2023-04-27T00:17:09;55164.66;;;-146.72;67.22
40994;BME280;26722;43.212;27.932;2023-04-27T00:19:35;55192.09;;;-146.72;67.69
40994;BME280;26722;43.212;27.932;2023-04-27T00:22:00;55177.31;;;-146.72;67.65
40994;BME280;26722;43.212;27.932;2023-04-27T00:24:26;55187.88;;;-146.72;67.17
40994;BME280;26722;43.212;27.932;2023-04-27T00:26:51;55179.44;;;-146.72;66.91
40994;BME280;26722;43.212;27.932;2023-04-27T00:29:17;55177.31;;;-146.72;66.71
40994;BME280;26722;43.212;27.932;2023-04-27T00:31:42;55175.22;;;-146.72;66.45
40994;BME280;26722;43.212;27.932;2023-04-27T00:34:07;55196.31;;;-146.72;65.60
40994;BME280;26722;43.212;27.932;2023-04-27T00:36:33;55200.53;;;-146.72;65.45
40994;BME280;26722;43.212;27.932;2023-04-27T00:38:59;55185.75;;;-146.72;64.88
40994;BME280;26722;43.212;27.932;2023-04-27T00:41:24;55179.44;;;-146.72;64.55
40994;BME280;26722;43.212;27.932;2023-04-27T00:43:50;55209.00;;;-146.72;64.50
40994;BME280;26722;43.212;27.932;2023-04-27T00:46:16;55196.31;;;-146.72;64.57
40994;BME280;26722;43.212;27.932;2023-04-27T00:48:42;55179.44;;;-146.72;64.34
40994;BME280;26722;43.212;27.932;2023-04-27T00:51:09;55181.53;;;-146.72;63.88
40994;BME280;26722;43.212;27.932;2023-04-27T00:53:35;55198.44;;;-146.72;63.91
40994;BME280;26722;43.212;27.932;2023-04-27T00:56:01;55194.22;;;-146.72;63.39
40994;BME280;26722;43.212;27.932;2023-04-27T00:58:27;55187.88;;;-146.72;62.83
40994;BME280;26722;43.212;27.932;2023-04-27T01:00:53;55179.44;;;-146.72;62.66
40994;BME280;26722;43.212;27.932;2023-04-27T01:03:18;55206.88;;;-146.72;61.95
40994;BME280;26722;43.212;27.932;2023-04-27T01:05:44;55190.00;;;-146.72;62.17
40994;BME280;26722;43.212;27.932;2023-04-27T01:08:09;55200.53;;;-146.72;61.66
40994;BME280;26722;43.212;27.932;2023-04-27T01:10:35;55183.66;;;-146.72;61.16
40994;BME280;26722;43.212;27.932;2023-04-27T01:13:01;55183.66;;;-146.72;60.85
40994;BME280;26722;43.212;27.932;2023-04-27T01:15:27;55196.31;;;-146.72;60.67
40994;BME280;26722;43.212;27.932;2023-04-27T01:17:57;55204.75;;;-146.72;60.49
40994;BME280;26722;43.212;27.932;2023-04-27T01:20:22;55194.22;;;-146.72;60.32
40994;BME280;26722;43.212;27.932;2023-04-27T01:22:48;55190.00;;;-146.72;59.85
40994;BME280;26722;43.212;27.932;2023-04-27T01:25:13;55196.31;;;-146.72;59.70
40994;BME280;26722;43.212;27.932;2023-04-27T01:27:39;55204.75;;;-146.72;59.10
40994;BME280;26722;43.212;27.932;2023-04-27T01:30:05;55187.88;;;-146.72;59.37
40994;BME280;26722;43.212;27.932;2023-04-27T01:32:30;55192.09;;;-146.72;58.93
40994;BME280;26722;43.212;27.932;2023-04-27T01:34:56;55183.66;;;-146.72;59.37
40994;BME280;26722;43.212;27.932;2023-04-27T01:37:21;55204.75;;;-146.72;59.81
40994;BME280;26722;43.212;27.932;2023-04-27T01:39:47;55183.66;;;-146.72;59.93
40994;BME280;26722;43.212;27.932;2023-04-27T01:42:12;55196.31;;;-146.72;60.65
40994;BME280;26722;43.212;27.932;2023-04-27T01:44:37;55211.09;;;-146.72;60.21
40994;BME280;26722;43.212;27.932;2023-04-27T01:47:03;55187.88;;;-146.72;60.26
40994;BME280;26722;43.212;27.932;2023-04-27T01:49:28;55192.09;;;-146.72;60.44
40994;BME280;26722;43.212;27.932;2023-04-27T01:51:54;55211.09;;;-146.72;60.54
40994;BME280;26722;43.212;27.932;2023-04-27T01:54:19;55200.53;;;-146.72;60.84
40994;BME280;26722;43.212;27.932;2023-04-27T01:56:45;55217.44;;;-146.72;61.16
40994;BME280;26722;43.212;27.932;2023-04-27T01:59:10;55192.09;;;-146.72;60.85
40994;BME280;26722;43.212;27.932;2023-04-27T02:01:36;55194.22;;;-146.72;61.16
40994;BME280;26722;43.212;27.932;2023-04-27T02:04:01;55204.75;;;-146.72;60.87
40994;BME280;26722;43.212;27.932;2023-04-27T02:06:26;55215.31;;;-146.72;60.71
40994;BME280;26722;43.212;27.932;2023-04-27T02:08:52;55217.44;;;-146.72;60.71
40994;BME280;26722;43.212;27.932;2023-04-27T02:11:17;55196.31;;;-146.72;60.85
40994;BME280;26722;43.212;27.932;2023-04-27T02:13:43;55194.22;;;-146.72;61.34
40994;BME280;26722;43.212;27.932;2023-04-27T02:16:08;55215.31;;;-146.72;61.24
40994;BME280;26722;43.212;27.932;2023-04-27T02:18:34;55211.09;;;-146.72;61.06
40994;BME280;26722;43.212;27.932;2023-04-27T02:21:00;55213.22;;;-146.72;61.17
40994;BME280;26722;43.212;27.932;2023-04-27T02:23:25;55223.78;;;-146.72;61.01
40994;BME280;26722;43.212;27.932;2023-04-27T02:25:51;55213.22;;;-146.72;60.65
40994;BME280;26722;43.212;27.932;2023-04-27T02:28:16;55253.31;;;-146.72;60.63
40994;BME280;26722;43.212;27.932;2023-04-27T02:30:42;55217.44;;;-146.72;60.62
40994;BME280;26722;43.212;27.932;2023-04-27T02:33:07;55209.00;;;-146.72;60.54
40994;BME280;26722;43.212;27.932;2023-04-27T02:35:33;55213.22;;;-146.72;60.57
40994;BME280;26722;43.212;27.932;2023-04-27T02:37:58;55213.22;;;-146.72;60.30
40994;BME280;26722;43.212;27.932;2023-04-27T02:40:24;55230.09;;;-146.72;60.30
40994;BME280;26722;43.212;27.932;2023-04-27T02:42:50;55215.31;;;-146.72;59.82
40994;BME280;26722;43.212;27.932;2023-04-27T02:45:16;55230.09;;;-146.72;59.84
40994;BME280;26722;43.212;27.932;2023-04-27T02:47:41;55217.44;;;-146.72;59.44
40994;BME280;26722;43.212;27.932;2023-04-27T02:50:07;55238.53;;;-146.72;59.92
40994;BME280;26722;43.212;27.932;2023-04-27T02:52:33;55234.31;;;-146.72;60.07
40994;BME280;26722;43.212;27.932;2023-04-27T02:54:58;55215.31;;;-146.72;60.06
40994;BME280;26722;43.212;27.932;2023-04-27T02:57:23;55221.66;;;-146.72;60.14
40994;BME280;26722;43.212;27.932;2023-04-27T02:59:49;55217.44;;;-146.72;60.42
40994;BME280;26722;43.212;27.932;2023-04-27T03:02:15;55242.78;;;-146.72;60.11
40994;BME280;26722;43.212;27.932;2023-04-27T03:04:40;55217.44;;;-146.72;60.00
40994;BME280;26722;43.212;27.932;2023-04-27T03:07:06;55228.00;;;-146.72;59.89
40994;BME280;26722;43.212;27.932;2023-04-27T03:09:31;55217.44;;;-146.72;59.80
40994;BME280;26722;43.212;27.932;2023-04-27T03:11:57;55223.78;;;-146.72;59.73
40994;BME280;26722;43.212;27.932;2023-04-27T03:14:22;55215.31;;;-146.72;59.69
40994;BME280;26722;43.212;27.932;2023-04-27T03:16:48;55200.53;;;-146.72;59.55
40994;BME280;26722;43.212;27.932;2023-04-27T03:19:13;55213.22;;;-146.72;59.13
40994;BME280;26722;43.212;27.932;2023-04-27T03:21:38;55225.88;;;-146.72;59.01
40994;BME280;26722;43.212;27.932;2023-04-27T03:24:04;55217.44;;;-146.72;58.98
40994;BME280;26722;43.212;27.932;2023-04-27T03:26:30;55209.00;;;-146.72;58.71
40994;BME280;26722;43.212;27.932;2023-04-27T03:28:55;55209.00;;;-146.72;58.80
40994;BME280;26722;43.212;27.932;2023-04-27T03:31:21;55230.09;;;-146.72;59.22
40994;BME280;26722;43.212;27.932;2023-04-27T03:33:46;55234.31;;;-146.72;59.03
40994;BME280;26722;43.212;27.932;2023-04-27T03:36:11;55234.31;;;-146.72;58.99
40994;BME280;26722;43.212;27.932;2023-04-27T03:38:37;55215.31;;;-146.72;58.76
40994;BME280;26722;43.212;27.932;2023-04-27T03:41:02;55223.78;;;-146.72;58.95
40994;BME280;26722;43.212;27.932;2023-04-27T03:43:28;55215.31;;;-146.72;59.11
40994;BME280;26722;43.212;27.932;2023-04-27T03:45:53;55206.88;;;-146.72;58.99
40994;BME280;26722;43.212;27.932;2023-04-27T03:48:19;55217.44;;;-146.72;59.12
40994;BME280;26722;43.212;27.932;2023-04-27T03:50:45;55213.22;;;-146.72;58.89
40994;BME280;26722;43.212;27.932;2023-04-27T03:53:11;55200.53;;;-146.72;58.78
40994;BME280;26722;43.212;27.932;2023-04-27T03:55:41;55225.88;;;-146.72;59.35
40994;BME280;26722;43.212;27.932;2023-04-27T03:58:07;55225.88;;;-146.72;59.08
40994;BME280;26722;43.212;27.932;2023-04-27T04:00:34;55213.22;;;-146.72;59.56
40994;BME280;26722;43.212;27.932;2023-04-27T04:03:00;55219.53;;;-146.72;58.83
40994;BME280;26722;43.212;27.932;2023-04-27T04:05:26;55213.22;;;-146.72;58.62
40994;BME280;26722;43.212;27.932;2023-04-27T04:07:52;55200.53;;;-146.72;58.60
40994;BME280;26722;43.212;27.932;2023-04-27T04:10:17;55196.31;;;-146.72;58.11
40994;BME280;26722;43.212;27.932;2023-04-27T04:12:43;55217.44;;;-146.72;57.97
40994;BME280;26722;43.212;27.932;2023-04-27T04:15:08;55209.00;;;-146.72;57.97
40994;BME280;26722;43.212;27.932;2023-04-27T04:17:34;55209.00;;;-146.72;58.01
40994;BME280;26722;43.212;27.932;2023-04-27T04:20:00;55221.66;;;-146.72;57.94
40994;BME280;26722;43.212;27.932;2023-04-27T04:22:25;55221.66;;;-146.72;57.86
40994;BME280;26722;43.212;27.932;2023-04-27T04:24:51;55194.22;;;-146.72;57.66
40994;BME280;26722;43.212;27.932;2023-04-27T04:27:16;55196.31;;;-146.72;56.93
40994;BME280;26722;43.212;27.932;2023-04-27T04:29:42;55185.75;;;-146.72;57.27
40994;BME280;26722;43.212;27.932;2023-04-27T04:32:07;55204.75;;;-146.72;57.32
40994;BME280;26722;43.212;27.932;2023-04-27T04:34:34;55209.00;;;-146.72;57.08
40994;BME280;26722;43.212;27.932;2023-04-27T04:37:00;55219.53;;;-146.72;57.83
40994;BME280;26722;43.212;27.932;2023-04-27T04:39:32;55230.09;;;-146.72;57.74
40994;BME280;26722;43.212;27.932;2023-04-27T04:41:57;55209.00;;;-146.72;57.54
40994;BME280;26722;43.212;27.932;2023-04-27T04:44:23;55211.09;;;-146.72;57.38
40994;BME280;26722;43.212;27.932;2023-04-27T04:46:48;55198.44;;;-146.72;57.31
40994;BME280;26722;43.212;27.932;2023-04-27T04:49:14;55200.53;;;-146.72;57.10
40994;BME280;26722;43.212;27.932;2023-04-27T04:51:43;55211.09;;;-146.72;57.13
40994;BME280;26722;43.212;27.932;2023-04-27T04:54:09;55213.22;;;-146.72;56.56
40994;BME280;26722;43.212;27.932;2023-04-27T04:56:35;55198.44;;;-146.72;56.61
40994;BME280;26722;43.212;27.932;2023-04-27T04:59:01;55217.44;;;-146.72;56.88
40994;BME280;26722;43.212;27.932;2023-04-27T05:01:27;55196.31;;;-146.72;56.75
40994;BME280;26722;43.212;27.932;2023-04-27T05:03:52;55225.88;;;-146.72;56.87
40994;BME280;26722;43.212;27.932;2023-04-27T05:06:17;55200.53;;;-146.72;56.67
40994;BME280;26722;43.212;27.932;2023-04-27T05:08:43;55213.22;;;-146.72;56.66
40994;BME280;26722;43.212;27.932;2023-04-27T05:11:08;55217.44;;;-146.72;56.61
40994;BME280;26722;43.212;27.932;2023-04-27T05:13:34;55185.75;;;-146.72;56.86
40994;BME280;26722;43.212;27.932;2023-04-27T05:16:03;55192.09;;;-146.72;57.27
40994;BME280;26722;43.212;27.932;2023-04-27T05:18:29;55215.31;;;-146.72;57.51
40994;BME280;26722;43.212;27.932;2023-04-27T05:20:55;55209.00;;;-146.72;57.57
40994;BME280;26722;43.212;27.932;2023-04-27T05:23:20;55209.00;;;-146.72;57.85
40994;BME280;26722;43.212;27.932;2023-04-27T05:25:46;55200.53;;;-146.72;57.68
40994;BME280;26722;43.212;27.932;2023-04-27T05:28:11;55183.66;;;-146.72;57.32
40994;BME280;26722;43.212;27.932;2023-04-27T05:30:37;55196.31;;;-146.72;57.13
40994;BME280;26722;43.212;27.932;2023-04-27T05:33:03;55187.88;;;-146.72;57.24
40994;BME280;26722;43.212;27.932;2023-04-27T05:35:29;55187.88;;;-146.72;57.12
40994;BME280;26722;43.212;27.932;2023-04-27T05:37:56;55204.75;;;-146.72;56.95
40994;BME280;26722;43.212;27.932;2023-04-27T05:40:21;55168.88;;;-146.72;56.68
40994;BME280;26722;43.212;27.932;2023-04-27T05:42:47;55204.75;;;-146.72;56.87
40994;BME280;26722;43.212;27.932;2023-04-27T05:45:13;55202.66;;;-146.72;56.13
40994;BME280;26722;43.212;27.932;2023-04-27T05:47:39;55181.53;;;-146.72;55.98
40994;BME280;26722;43.212;27.932;2023-04-27T05:50:04;55190.00;;;-146.72;56.13
40994;BME280;26722;43.212;27.932;2023-04-27T05:52:30;55177.31;;;-146.72;55.07
40994;BME280;26722;43.212;27.932;2023-04-27T05:54:57;55173.09;;;-146.72;54.78
40994;BME280;26722;43.212;27.932;2023-04-27T05:57:25;55170.97;;;-146.72;54.30
40994;BME280;26722;43.212;27.932;2023-04-27T05:59:51;55168.88;;;-146.72;53.54
40994;BME280;26722;43.212;27.932;2023-04-27T06:02:17;55192.09;;;-146.72;53.96
40994;BME280;26722;43.212;27.932;2023-04-27T06:04:44;55175.22;;;-146.72;54.12
40994;BME280;26722;43.212;27.932;2023-04-27T06:07:10;55173.09;;;-146.72;53.47
40994;BME280;26722;43.212;27.932;2023-04-27T06:09:36;55179.44;;;-146.72;53.64
40994;BME280;26722;43.212;27.932;2023-04-27T06:12:03;55168.88;;;-146.72;53.08
40994;BME280;26722;43.212;27.932;2023-04-27T06:14:33;55135.09;;;-146.72;52.23
40994;BME280;26722;43.212;27.932;2023-04-27T06:17:00;55137.22;;;-146.72;51.57
40994;BME280;26722;43.212;27.932;2023-04-27T06:19:26;55149.88;;;-146.72;50.69
40994;BME280;26722;43.212;27.932;2023-04-27T06:21:52;55149.88;;;-146.72;49.01
40994;BME280;26722;43.212;27.932;2023-04-27T06:24:18;55170.97;;;-146.72;48.63
40994;BME280;26722;43.212;27.932;2023-04-27T06:26:44;55141.44;;;-146.72;48.67
40994;BME280;26722;43.212;27.932;2023-04-27T06:29:09;55154.09;;;-146.72;48.15
40994;BME280;26722;43.212;27.932;2023-04-27T06:31:35;55154.09;;;-146.72;47.00
40994;BME280;26722;43.212;27.932;2023-04-27T06:34:00;55154.09;;;-146.72;47.33
40994;BME280;26722;43.212;27.932;2023-04-27T06:36:26;55137.22;;;-146.72;47.26
40994;BME280;26722;43.212;27.932;2023-04-27T06:38:53;55141.44;;;-146.72;47.49
40994;BME280;26722;43.212;27.932;2023-04-27T06:41:22;55124.53;;;-146.72;47.29
40994;BME280;26722;43.212;27.932;2023-04-27T06:43:48;55132.97;;;-146.72;47.80
40994;BME280;26722;43.212;27.932;2023-04-27T06:46:14;55151.97;;;-146.72;47.84
40994;BME280;26722;43.212;27.932;2023-04-27T06:48:40;55170.97;;;-146.72;47.37
40994;BME280;26722;43.212;27.932;2023-04-27T06:51:06;55158.31;;;-146.72;47.17
40994;BME280;26722;43.212;27.932;2023-04-27T06:53:31;55145.66;;;-146.72;47.05
40994;BME280;26722;43.212;27.932;2023-04-27T06:55:57;55164.66;;;-146.72;47.11
40994;BME280;26722;43.212;27.932;2023-04-27T06:58:22;55149.88;;;-146.72;47.64
40994;BME280;26722;43.212;27.932;2023-04-27T07:00:48;55158.31;;;-146.72;47.33
40994;BME280;26722;43.212;27.932;2023-04-27T07:03:14;55151.97;;;-146.72;47.52
40994;BME280;26722;43.212;27.932;2023-04-27T07:05:40;55128.75;;;-146.72;46.66
40994;BME280;26722;43.212;27.932;2023-04-27T07:08:05;55162.53;;;-146.72;46.31
40994;BME280;26722;43.212;27.932;2023-04-27T07:10:31;55151.97;;;-146.72;46.33
40994;BME280;26722;43.212;27.932;2023-04-27T07:12:56;55147.75;;;-146.72;45.58
40994;BME280;26722;43.212;27.932;2023-04-27T07:15:22;55139.31;;;-146.72;45.62
40994;BME280;26722;43.212;27.932;2023-04-27T07:17:48;55128.75;;;-146.72;46.10
40994;BME280;26722;43.212;27.932;2023-04-27T07:20:15;55128.75;;;-146.72;46.22
40994;BME280;26722;43.212;27.932;2023-04-27T07:22:41;55132.97;;;-146.72;45.20
40994;BME280;26722;43.212;27.932;2023-04-27T07:25:18;55149.88;;;-146.72;44.50
40994;BME280;26722;43.212;27.932;2023-04-27T07:27:44;55126.66;;;-146.72;44.29
40994;BME280;26722;43.212;27.932;2023-04-27T07:30:09;55137.22;;;-146.72;44.30
40994;BME280;26722;43.212;27.932;2023-04-27T07:32:40;55126.66;;;-146.72;45.00
40994;BME280;26722;43.212;27.932;2023-04-27T07:35:07;55132.97;;;-146.72;43.44
40994;BME280;26722;43.212;27.932;2023-04-27T07:37:36;55107.66;;;-146.72;43.24
40994;BME280;26722;43.212;27.932;2023-04-27T07:40:02;55120.31;;;-146.72;43.65
40994;BME280;26722;43.212;27.932;2023-04-27T07:42:36;55126.66;;;-146.72;42.78
40994;BME280;26722;43.212;27.932;2023-04-27T07:45:04;55107.66;;;-146.72;43.24
40994;BME280;26722;43.212;27.932;2023-04-27T07:47:29;55116.09;;;-146.72;42.49
40994;BME280;26722;43.212;27.932;2023-04-27T07:49:55;55097.09;;;-146.72;42.04
40994;BME280;26722;43.212;27.932;2023-04-27T07:52:20;55120.31;;;-146.72;41.99
40994;BME280;26722;43.212;27.932;2023-04-27T07:54:46;55092.88;;;-146.72;42.05
40994;BME280;26722;43.212;27.932;2023-04-27T07:57:11;55097.09;;;-146.72;41.40
40994;BME280;26722;43.212;27.932;2023-04-27T07:59:37;55118.19;;;-146.72;39.55
40994;BME280;26722;43.212;27.932;2023-04-27T08:02:03;55111.88;;;-146.72;38.79
40994;BME280;26722;43.212;27.932;2023-04-27T08:04:28;55094.97;;;-146.72;38.50
40994;BME280;26722;43.212;27.932;2023-04-27T08:06:54;55128.75;;;-146.72;39.14
40994;BME280;26722;43.212;27.932;2023-04-27T08:09:19;55118.19;;;-146.72;39.63
40994;BME280;26722;43.212;27.932;2023-04-27T08:11:45;55111.88;;;-146.72;39.16
40994;BME280;26722;43.212;27.932;2023-04-27T08:14:10;55118.19;;;-146.72;39.42
40994;BME280;26722;43.212;27.932;2023-04-27T08:16:41;55130.88;;;-146.72;39.30
40994;BME280;26722;43.212;27.932;2023-04-27T08:19:08;55101.31;;;-146.72;39.63
40994;BME280;26722;43.212;27.932;2023-04-27T08:21:34;55107.66;;;-146.72;39.71
40994;BME280;26722;43.212;27.932;2023-04-27T08:24:01;55116.09;;;-146.72;39.74
40994;BME280;26722;43.212;27.932;2023-04-27T08:26:27;55099.19;;;-146.72;39.15
40994;BME280;26722;43.212;27.932;2023-04-27T08:28:52;55094.97;;;-146.72;39.04
40994;BME280;26722;43.212;27.932;2023-04-27T08:31:18;55122.44;;;-146.72;38.49
40994;BME280;26722;43.212;27.932;2023-04-27T08:33:43;55120.31;;;-146.72;38.27
40994;BME280;26722;43.212;27.932;2023-04-27T08:36:09;55111.88;;;-146.72;38.23
40994;BME280;26722;43.212;27.932;2023-04-27T08:38:34;55103.44;;;-146.72;37.91
40994;BME280;26722;43.212;27.932;2023-04-27T08:41:00;55107.66;;;-146.72;37.21
40994;BME280;26722;43.212;27.932;2023-04-27T08:43:25;55086.53;;;-146.72;36.03
40994;BME280;26722;43.212;27.932;2023-04-27T08:45:51;55086.53;;;-146.72;36.25
40994;BME280;26722;43.212;27.932;2023-04-27T08:48:17;55078.09;;;-146.72;36.50
40994;BME280;26722;43.212;27.932;2023-04-27T08:50:44;55050.66;;;-146.72;35.98
40994;BME280;26722;43.212;27.932;2023-04-27T08:53:19;55065.41;;;-146.72;35.90
40994;BME280;26722;43.212;27.932;2023-04-27T08:55:46;55048.53;;;-146.72;34.15
40994;BME280;26722;43.212;27.932;2023-04-27T08:58:12;55056.97;;;-146.72;34.49
40994;BME280;26722;43.212;27.932;2023-04-27T09:00:42;55052.75;;;-146.72;34.69
40994;BME280;26722;43.212;27.932;2023-04-27T09:03:23;55050.66;;;-146.72;34.52
40994;BME280;26722;43.212;27.932;2023-04-27T09:05:49;55063.31;;;-146.72;35.16
40994;BME280;26722;43.212;27.932;2023-04-27T09:08:15;55063.31;;;-146.72;35.12
40994;BME280;26722;43.212;27.932;2023-04-27T09:10:50;55061.19;;;-146.72;35.29
40994;BME280;26722;43.212;27.932;2023-04-27T09:13:17;55054.88;;;-146.72;35.04
40994;BME280;26722;43.212;27.932;2023-04-27T09:15:47;55069.66;;;-146.72;34.63
40994;BME280;26722;43.212;27.932;2023-04-27T09:18:21;55086.53;;;-146.72;36.27
40994;BME280;26722;43.212;27.932;2023-04-27T09:20:51;55101.31;;;-146.72;36.80
40994;BME280;26722;43.212;27.932;2023-04-27T09:23:33;55067.53;;;-146.72;36.12
40994;BME280;26722;43.212;27.932;2023-04-27T09:26:01;55088.66;;;-146.72;36.41
40994;BME280;26722;43.212;27.932;2023-04-27T09:28:29;55086.53;;;-146.72;37.09
40994;BME280;26722;43.212;27.932;2023-04-27T09:30:59;55105.53;;;-146.72;36.77
40994;BME280;26722;43.212;27.932;2023-04-27T09:35:52;55073.88;;;-146.72;36.22
40994;BME280;26722;43.212;27.932;2023-04-27T09:38:19;55065.41;;;-146.72;35.61
40994;BME280;26722;43.212;27.932;2023-04-27T09:40:45;55073.88;;;-146.72;35.20
40994;BME280;26722;43.212;27.932;2023-04-27T09:43:11;55075.97;;;-146.72;35.43
40994;BME280;26722;43.212;27.932;2023-04-27T09:45:37;55073.88;;;-146.72;35.43
40994;BME280;26722;43.212;27.932;2023-04-27T09:48:03;55061.19;;;-146.72;34.73
40994;BME280;26722;43.212;27.932;2023-04-27T09:50:30;55054.88;;;-146.72;35.05
40994;BME280;26722;43.212;27.932;2023-04-27T09:52:55;55059.09;;;-146.72;34.95
40994;BME280;26722;43.212;27.932;2023-04-27T09:55:31;55056.97;;;-146.72;34.69
40994;BME280;26722;43.212;27.932;2023-04-27T10:03:25;55075.97;;;-146.72;36.10
40994;BME280;26722;43.212;27.932;2023-04-27T10:08:38;55067.53;;;-146.72;36.26
40994;BME280;26722;43.212;27.932;2023-04-27T10:11:17;55073.88;;;-146.72;35.95
40994;BME280;26722;43.212;27.932;2023-04-27T10:13:51;55099.19;;;-146.72;36.58
40994;BME280;26722;43.212;27.932;2023-04-27T10:16:18;55078.09;;;-146.72;36.55
40994;BME280;26722;43.212;27.932;2023-04-27T10:18:50;55073.88;;;-146.72;36.08
40994;BME280;26722;43.212;27.932;2023-04-27T10:21:17;55078.09;;;-146.72;36.09
40994;BME280;26722;43.212;27.932;2023-04-27T10:23:50;55071.75;;;-146.72;35.95
40994;BME280;26722;43.212;27.932;2023-04-27T10:26:23;55056.97;;;-146.72;35.64
40994;BME280;26722;43.212;27.932;2023-04-27T10:29:06;55073.88;;;-146.72;35.46
40994;BME280;26722;43.212;27.932;2023-04-27T10:31:32;55059.09;;;-146.72;35.56
40994;BME280;26722;43.212;27.932;2023-04-27T10:34:24;55065.41;;;-146.72;35.48
40994;BME280;26722;43.212;27.932;2023-04-27T10:37:04;55065.41;;;-146.72;34.71
40994;BME280;26722;43.212;27.932;2023-04-27T10:39:34;55050.66;;;-146.72;34.65
40994;BME280;26722;43.212;27.932;2023-04-27T10:42:00;55073.88;;;-146.72;35.02
40994;BME280;26722;43.212;27.932;2023-04-27T10:44:28;55073.88;;;-146.72;35.41
40994;BME280;26722;43.212;27.932;2023-04-27T10:46:55;55073.88;;;-146.72;35.58
40994;BME280;26722;43.212;27.932;2023-04-27T10:49:22;55099.19;;;-146.72;35.52
40994;BME280;26722;43.212;27.932;2023-04-27T10:51:51;55107.66;;;-146.72;36.27
40994;BME280;26722;43.212;27.932;2023-04-27T10:54:17;55071.75;;;-146.72;35.88
40994;BME280;26722;43.212;27.932;2023-04-27T10:56:43;55067.53;;;-146.72;35.23
40994;BME280;26722;43.212;27.932;2023-04-27T10:59:09;55086.53;;;-146.72;35.87
40994;BME280;26722;43.212;27.932;2023-04-27T11:01:35;55065.41;;;-146.72;36.24
40994;BME280;26722;43.212;27.932;2023-04-27T11:04:01;55082.31;;;-146.72;35.74
40994;BME280;26722;43.212;27.932;2023-04-27T11:06:28;55080.19;;;-146.72;35.59
40994;BME280;26722;43.212;27.932;2023-04-27T11:08:55;55090.75;;;-146.72;35.83
40994;BME280;26722;43.212;27.932;2023-04-27T11:11:21;55065.41;;;-146.72;36.05
40994;BME280;26722;43.212;27.932;2023-04-27T11:13:47;55071.75;;;-146.72;35.82
40994;BME280;26722;43.212;27.932;2023-04-27T11:16:14;55063.31;;;-146.72;35.64
40994;BME280;26722;43.212;27.932;2023-04-27T11:18:41;55082.31;;;-146.72;35.46
40994;BME280;26722;43.212;27.932;2023-04-27T11:21:10;55073.88;;;-146.72;35.44
40994;BME280;26722;43.212;27.932;2023-04-27T11:23:36;55086.53;;;-146.72;36.12
40994;BME280;26722;43.212;27.932;2023-04-27T11:28:34;55040.09;;;-146.72;36.09
40994;BME280;26722;43.212;27.932;2023-04-27T11:30:59;55059.09;;;-146.72;35.93
40994;BME280;26722;43.212;27.932;2023-04-27T11:33:26;55080.19;;;-146.72;35.55
40994;BME280;26722;43.212;27.932;2023-04-27T11:35:52;55065.41;;;-146.72;35.74
40994;BME280;26722;43.212;27.932;2023-04-27T11:38:18;55078.09;;;-146.72;35.69
40994;BME280;26722;43.212;27.932;2023-04-27T11:40:45;55078.09;;;-146.72;35.94
40994;BME280;26722;43.212;27.932;2023-04-27T11:43:14;55069.66;;;-146.72;35.98
40994;BME280;26722;43.212;27.932;2023-04-27T11:45:43;55073.88;;;-146.72;35.94
40994;BME280;26722;43.212;27.932;2023-04-27T11:48:14;55054.88;;;-146.72;35.61
40994;BME280;26722;43.212;27.932;2023-04-27T11:50:45;55069.66;;;-146.72;35.13
40994;BME280;26722;43.212;27.932;2023-04-27T11:53:11;55065.41;;;-146.72;35.17
40994;BME280;26722;43.212;27.932;2023-04-27T11:55:37;55069.66;;;-146.72;34.94
40994;BME280;26722;43.212;27.932;2023-04-27T11:58:05;55040.09;;;-146.72;34.78
40994;BME280;26722;43.212;27.932;2023-04-27T12:00:31;55090.75;;;-146.72;34.98
40994;BME280;26722;43.212;27.932;2023-04-27T12:02:57;55040.09;;;-146.72;34.30
40994;BME280;26722;43.212;27.932;2023-04-27T12:05:22;55056.97;;;-146.72;34.49
40994;BME280;26722;43.212;27.932;2023-04-27T12:07:48;55052.75;;;-146.72;34.22
40994;BME280;26722;43.212;27.932;2023-04-27T12:10:13;55048.53;;;-146.72;34.35
40994;BME280;26722;43.212;27.932;2023-04-27T12:12:39;55071.75;;;-146.72;34.04
40994;BME280;26722;43.212;27.932;2023-04-27T12:15:05;55071.75;;;-146.72;34.88
40994;BME280;26722;43.212;27.932;2023-04-27T12:17:32;55061.19;;;-146.72;34.70
40994;BME280;26722;43.212;27.932;2023-04-27T12:19:58;55073.88;;;-146.72;34.58
40994;BME280;26722;43.212;27.932;2023-04-27T12:22:23;55073.88;;;-146.72;34.88
40994;BME280;26722;43.212;27.932;2023-04-27T12:24:49;55056.97;;;-146.72;34.83
40994;BME280;26722;43.212;27.932;2023-04-27T12:27:15;55067.53;;;-146.72;34.91
40994;BME280;26722;43.212;27.932;2023-04-27T12:29:41;55061.19;;;-146.72;34.97
40994;BME280;26722;43.212;27.932;2023-04-27T12:32:09;55097.09;;;-146.72;35.22
40994;BME280;26722;43.212;27.932;2023-04-27T12:34:38;55073.88;;;-146.72;34.98
40994;BME280;26722;43.212;27.932;2023-04-27T12:37:04;55069.66;;;-146.72;35.00
40994;BME280;26722;43.212;27.932;2023-04-27T12:39:30;55075.97;;;-146.72;35.25